Time;durP1;ratioP1;P1;durP2;ratioP2;P2;SDS_P1;SDS_P2;PMS_P1;PMS_P2;Temp;Humidity;BMP_temperature;BMP_pressure;BME280_temperature;BME280_humidity;BME280_pressure;Samples;Min_cycle;Max_cycle;Signal;HPM_P1;HPM_P2
2021/05/25 00:00:26;;;;;;;1.63;0.63;;;12.80;57.80;;;;;;10038088;28;20045;-56
2021/05/25 00:05:24;;;;;;;0.98;0.68;;;12.70;58.00;;;;;;10037282;28;20164;-59
2021/05/25 00:10:16;;;;;;;0.63;0.60;;;12.70;57.70;;;;;;10037459;28;20048;-57
2021/05/25 00:15:13;;;;;;;0.80;0.50;;;12.70;57.60;;;;;;10038072;28;20025;-58
2021/05/25 00:20:08;;;;;;;1.00;0.43;;;12.70;57.60;;;;;;10036648;28;20037;-55
2021/05/25 00:24:59;;;;;;;2.33;0.57;;;12.70;57.60;;;;;;10069685;28;20059;-56
2021/05/25 00:29:50;;;;;;;2.83;0.40;;;12.60;57.50;;;;;;10036550;28;20064;-58
2021/05/25 00:34:40;;;;;;;1.75;0.47;;;12.70;57.50;;;;;;10043341;28;20033;-56
2021/05/25 00:39:31;;;;;;;1.23;0.57;;;12.70;57.40;;;;;;10044685;28;20037;-54
2021/05/25 00:44:22;;;;;;;1.00;0.38;;;12.60;57.60;;;;;;10044472;28;20382;-56
2021/05/25 00:49:13;;;;;;;1.73;0.52;;;12.50;57.70;;;;;;10043306;28;20049;-54
2021/05/25 00:54:04;;;;;;;1.88;0.40;;;12.60;57.50;;;;;;10044424;28;20395;-55
2021/05/25 00:58:55;;;;;;;0.88;0.25;;;12.60;57.30;;;;;;10042619;28;20051;-57
2021/05/25 01:03:46;;;;;;;2.85;0.43;;;12.60;57.30;;;;;;10044185;28;20056;-59
2021/05/25 01:08:38;;;;;;;0.77;0.40;;;12.60;57.50;;;;;;10041929;28;20164;-56
2021/05/25 01:13:31;;;;;;;1.38;0.63;;;12.70;57.50;;;;;;10042314;28;20073;-56
2021/05/25 01:18:22;;;;;;;3.03;0.60;;;12.50;57.70;;;;;;10040773;28;20033;-53
2021/05/25 01:23:13;;;;;;;2.00;0.40;;;12.60;57.80;;;;;;10042985;28;20060;-58
2021/05/25 01:28:09;;;;;;;0.30;0.30;;;12.70;57.40;;;;;;10041531;28;20587;-55
2021/05/25 01:33:01;;;;;;;1.08;0.50;;;12.60;57.30;;;;;;10043296;28;20070;-57
2021/05/25 01:37:53;;;;;;;0.63;0.30;;;12.50;57.40;;;;;;10041811;28;20140;-57
2021/05/25 01:42:44;;;;;;;1.10;0.43;;;12.40;57.60;;;;;;10042184;28;20032;-58
2021/05/25 01:47:35;;;;;;;0.95;0.45;;;12.40;57.30;;;;;;10041124;28;20208;-54
2021/05/25 01:52:26;;;;;;;0.32;0.28;;;12.30;57.30;;;;;;10042071;28;20922;-58
2021/05/25 01:57:17;;;;;;;0.93;0.50;;;12.20;57.50;;;;;;10041312;28;20335;-58
2021/05/25 02:02:07;;;;;;;1.00;0.60;;;12.20;57.20;;;;;;10041222;28;20079;-59
2021/05/25 02:06:58;;;;;;;2.15;0.57;;;12.20;57.10;;;;;;10040210;28;20041;-56
2021/05/25 02:11:49;;;;;;;1.95;0.30;;;12.20;57.10;;;;;;10041598;28;20033;-57
2021/05/25 02:16:40;;;;;;;1.73;0.90;;;12.30;56.80;;;;;;10041080;28;20566;-58
2021/05/25 02:21:31;;;;;;;1.17;0.52;;;12.40;57.00;;;;;;10041199;28;20120;-57
2021/05/25 02:26:22;;;;;;;2.00;0.40;;;12.30;57.30;;;;;;10039262;28;20678;-59
2021/05/25 02:31:13;;;;;;;1.63;0.50;;;12.10;58.00;;;;;;10041886;28;20525;-54
2021/05/25 02:36:05;;;;;;;1.55;0.30;;;12.10;58.20;;;;;;10040046;28;20045;-53
2021/05/25 02:40:56;;;;;;;1.88;0.22;;;12.10;58.30;;;;;;10040645;28;20060;-56
2021/05/25 02:45:48;;;;;;;1.33;0.40;;;12.10;58.20;;;;;;10040721;28;20494;-57
2021/05/25 02:50:39;;;;;;;1.42;0.63;;;12.10;58.10;;;;;;10041133;28;20041;-57
2021/05/25 02:55:33;;;;;;;3.45;0.38;;;12.20;58.00;;;;;;10040505;28;20534;-55
2021/05/25 03:00:26;;;;;;;0.93;0.40;;;11.90;58.10;;;;;;10040221;28;20060;-57
2021/05/25 03:05:19;;;;;;;2.28;0.45;;;11.90;58.20;;;;;;10038459;28;20430;-54
2021/05/25 03:10:14;;;;;;;1.25;0.63;;;11.80;58.30;;;;;;10038301;28;20691;-55
2021/05/25 03:15:07;;;;;;;0.85;0.43;;;11.80;58.50;;;;;;10038592;28;20449;-56
2021/05/25 03:19:58;;;;;;;1.83;0.38;;;11.70;58.70;;;;;;10039124;28;20060;-56
2021/05/25 03:24:49;;;;;;;0.73;0.73;;;11.70;58.60;;;;;;10038421;28;20029;-56
2021/05/25 03:29:40;;;;;;;0.30;0.30;;;11.70;59.10;;;;;;10038741;28;20479;-55
2021/05/25 03:34:31;;;;;;;1.33;0.30;;;11.70;58.40;;;;;;10038133;28;20337;-56
2021/05/25 03:39:22;;;;;;;0.85;0.22;;;11.70;58.60;;;;;;10038378;28;20033;-55
2021/05/25 03:44:13;;;;;;;1.60;0.30;;;11.60;59.00;;;;;;10037421;28;20024;-58
2021/05/25 03:49:04;;;;;;;1.38;0.73;;;11.60;58.90;;;;;;10038274;28;21410;-58
2021/05/25 03:53:54;;;;;;;0.60;0.20;;;11.50;59.20;;;;;;10037016;28;20035;-57
2021/05/25 04:03:39;;;;;;;0.10;0.10;;;11.50;58.90;;;;;;10036237;28;20077;-56
2021/05/25 04:08:30;;;;;;;2.00;0.50;;;11.50;59.10;;;;;;10038393;28;20859;-56
2021/05/25 04:13:20;;;;;;;1.48;0.43;;;11.40;59.10;;;;;;10045262;28;20028;-54
2021/05/25 04:18:11;;;;;;;5.95;0.50;;;11.40;58.90;;;;;;10046521;28;20033;-55
2021/05/25 04:23:02;;;;;;;1.35;0.43;;;11.50;58.60;;;;;;10045015;28;20037;-57
2021/05/25 04:27:53;;;;;;;0.20;0.20;;;11.60;58.40;;;;;;10045667;28;20045;-56
2021/05/25 04:32:44;;;;;;;0.28;0.28;;;11.60;58.30;;;;;;10044490;28;20503;-54
2021/05/25 04:37:35;;;;;;;0.55;0.30;;;11.70;58.10;;;;;;10044812;28;20835;-55
2021/05/25 04:42:25;;;;;;;1.48;0.30;;;11.80;57.80;;;;;;10044352;28;20060;-56
2021/05/25 04:47:16;;;;;;;0.52;0.38;;;11.80;57.90;;;;;;10045016;28;20045;-54
2021/05/25 04:52:08;;;;;;;0.40;0.20;;;11.70;57.80;;;;;;10041971;28;20052;-55
2021/05/25 04:56:58;;;;;;;0.25;0.20;;;11.70;57.80;;;;;;10044950;28;20053;-56
2021/05/25 05:01:49;;;;;;;1.67;0.68;;;11.70;57.80;;;;;;10042867;28;20189;-56
2021/05/25 05:06:40;;;;;;;4.20;0.57;;;11.80;57.60;;;;;;10041256;28;20098;-54
2021/05/25 05:11:32;;;;;;;1.02;0.43;;;11.70;57.70;;;;;;10042027;28;20025;-53
2021/05/25 05:16:22;;;;;;;0.47;0.30;;;11.70;57.80;;;;;;10042081;28;20293;-58
2021/05/25 05:21:13;;;;;;;2.08;0.47;;;11.60;58.10;;;;;;10040848;28;20403;-56
2021/05/25 05:26:04;;;;;;;2.30;0.60;;;11.60;58.30;;;;;;10043512;28;20412;-54
2021/05/25 05:30:55;;;;;;;0.22;0.22;;;11.60;58.50;;;;;;10041516;28;20146;-53
2021/05/25 05:35:46;;;;;;;2.30;0.73;;;11.60;58.90;;;;;;10043334;28;20055;-57
2021/05/25 05:40:37;;;;;;;4.10;0.45;;;11.60;58.90;;;;;;10040511;28;20533;-56
2021/05/25 05:45:28;;;;;;;2.25;1.90;;;11.70;59.10;;;;;;10043520;28;20300;-56
2021/05/25 05:50:19;;;;;;;0.90;0.32;;;11.70;59.20;;;;;;10042469;28;20044;-55
2021/05/25 05:55:11;;;;;;;1.67;1.35;;;11.70;59.40;;;;;;10043086;28;20364;-55
2021/05/25 06:00:03;;;;;;;1.20;0.50;;;11.60;59.60;;;;;;10041635;28;20056;-55
2021/05/25 06:04:54;;;;;;;0.50;0.40;;;11.70;59.60;;;;;;10042041;28;20468;-54
2021/05/25 06:09:44;;;;;;;1.27;0.43;;;11.80;59.40;;;;;;10040890;28;20037;-57
2021/05/25 06:14:35;;;;;;;1.67;0.57;;;11.80;59.40;;;;;;10042135;28;20097;-56
2021/05/25 06:19:26;;;;;;;1.10;0.40;;;11.80;59.60;;;;;;10040201;28;20032;-56
2021/05/25 06:24:17;;;;;;;2.83;1.60;;;11.80;59.70;;;;;;10042059;28;20637;-56
2021/05/25 06:29:08;;;;;;;3.55;0.70;;;11.70;59.90;;;;;;10039503;28;20048;-58
2021/05/25 06:33:58;;;;;;;0.55;0.50;;;11.80;59.90;;;;;;10040085;28;20047;-57
2021/05/25 06:38:49;;;;;;;1.25;0.50;;;11.90;60.10;;;;;;10039411;28;20029;-57
2021/05/25 06:43:40;;;;;;;0.93;0.52;;;11.90;60.30;;;;;;10038694;28;20033;-54
2021/05/25 06:48:30;;;;;;;0.55;0.35;;;12.10;60.00;;;;;;10020628;28;22145;-53
2021/05/25 06:53:21;;;;;;;3.03;0.93;;;12.10;60.00;;;;;;10039943;28;20040;-53
2021/05/25 06:58:12;;;;;;;0.90;0.50;;;12.20;59.80;;;;;;10037481;28;20087;-53
2021/05/25 07:03:03;;;;;;;2.25;0.43;;;12.20;59.60;;;;;;10037902;28;20786;-52
2021/05/25 07:07:54;;;;;;;0.82;0.50;;;12.10;59.20;;;;;;10036947;28;20037;-53
2021/05/25 07:12:45;;;;;;;3.92;0.77;;;12.10;59.10;;;;;;10006687;28;20154;-54
2021/05/25 07:17:36;;;;;;;0.52;0.40;;;12.20;58.60;;;;;;10022782;28;20060;-55
2021/05/25 07:22:27;;;;;;;2.65;0.40;;;12.10;58.70;;;;;;10025832;28;20021;-56
2021/05/25 07:27:18;;;;;;;1.25;0.52;;;12.00;58.70;;;;;;10025170;28;20049;-57
2021/05/25 07:32:09;;;;;;;0.60;0.50;;;12.00;58.80;;;;;;10025995;28;20033;-53
2021/05/25 07:37:00;;;;;;;0.75;0.35;;;12.00;59.10;;;;;;10025508;28;20047;-55
2021/05/25 07:41:51;;;;;;;1.17;0.63;;;12.10;58.80;;;;;;10025640;28;20029;-56
2021/05/25 07:46:41;;;;;;;1.02;0.50;;;12.20;58.60;;;;;;10025197;28;20040;-56
2021/05/25 07:51:32;;;;;;;2.53;0.70;;;12.30;58.10;;;;;;10026871;28;20021;-56
2021/05/25 07:56:23;;;;;;;1.02;0.45;;;12.30;58.00;;;;;;10024857;28;20363;-56
2021/05/25 08:01:14;;;;;;;0.75;0.60;;;12.50;57.70;;;;;;10025040;28;20056;-53
2021/05/25 08:06:05;;;;;;;3.35;0.88;;;12.60;57.20;;;;;;10024464;28;20152;-51
2021/05/25 08:10:59;;;;;;;4.55;0.60;;;12.60;57.10;;;;;;10025185;28;20204;-54
2021/05/25 08:15:51;;;;;;;0.98;0.73;;;12.50;56.90;;;;;;10024223;28;20541;-49
2021/05/25 08:20:44;;;;;;;3.80;0.70;;;12.60;56.90;;;;;;10024517;28;20053;-56
2021/05/25 08:25:35;;;;;;;2.47;0.98;;;12.70;56.60;;;;;;10018122;28;20106;-52
2021/05/25 08:30:28;;;;;;;2.92;0.77;;;13.10;56.10;;;;;;10036370;28;20048;-54
2021/05/25 08:35:20;;;;;;;3.25;0.73;;;13.40;55.30;;;;;;10024589;28;20021;-53
2021/05/25 08:40:12;;;;;;;2.00;0.82;;;13.40;55.30;;;;;;10063409;28;20212;-52
2021/05/25 08:45:09;;;;;;;2.97;0.85;;;13.50;54.90;;;;;;10051271;28;20055;-53
2021/05/25 08:50:00;;;;;;;0.98;0.63;;;13.70;54.60;;;;;;10049216;28;20305;-50
2021/05/25 08:54:51;;;;;;;2.60;1.48;;;13.80;54.30;;;;;;10052838;28;20025;-56
2021/05/25 08:59:41;;;;;;;1.88;1.02;;;14.00;53.70;;;;;;10051205;28;20032;-54
2021/05/25 09:05:01;;;;;;;0.85;0.50;;;14.00;53.60;;;;;;10054513;28;20091;-54
2021/05/25 09:09:54;;;;;;;2.45;0.63;;;13.90;52.10;;;;;;10054599;28;20675;-58
2021/05/25 09:14:49;;;;;;;0.93;0.55;;;13.90;52.20;;;;;;10024077;28;20029;-59
2021/05/25 09:19:51;;;;;;;1.25;0.55;;;14.10;51.70;;;;;;10040129;28;20102;-52
2021/05/25 09:24:41;;;;;;;1.95;0.80;;;13.90;50.90;;;;;;10042387;28;20056;-56
2021/05/25 09:29:32;;;;;;;1.48;0.70;;;14.10;50.80;;;;;;10040737;28;20045;-54
2021/05/25 09:34:24;;;;;;;1.45;0.73;;;14.10;50.50;;;;;;10042604;28;20025;-54
2021/05/25 09:39:15;;;;;;;1.50;0.57;;;13.90;50.70;;;;;;10040968;28;20021;-55
2021/05/25 09:44:06;;;;;;;1.63;1.02;;;13.60;52.10;;;;;;10032356;28;20036;-59
2021/05/25 09:48:56;;;;;;;3.97;1.77;;;13.40;52.90;;;;;;10029289;28;20052;-53
2021/05/25 09:53:49;;;;;;;2.60;0.90;;;13.50;52.90;;;;;;10031439;28;20028;-52
2021/05/25 09:58:40;;;;;;;1.88;0.70;;;13.90;52.40;;;;;;10028233;28;20045;-55
2021/05/25 10:03:34;;;;;;;4.20;1.15;;;14.20;52.20;;;;;;10028466;28;20052;-58
2021/05/25 10:08:25;;;;;;;2.22;1.00;;;14.40;51.70;;;;;;10030686;28;21238;-54
2021/05/25 10:13:16;;;;;;;2.60;0.88;;;14.60;51.70;;;;;;10028654;28;20529;-53
2021/05/25 10:18:11;;;;;;;0.70;0.60;;;15.10;50.70;;;;;;10002877;28;20040;-54
2021/05/25 10:23:03;;;;;;;1.10;1.00;;;14.90;50.10;;;;;;10018446;28;20520;-55
2021/05/25 10:27:54;;;;;;;6.25;1.38;;;14.50;50.00;;;;;;10028306;28;20470;-54
2021/05/25 10:32:44;;;;;;;2.53;0.77;;;14.40;50.10;;;;;;10026304;28;20040;-56
2021/05/25 10:37:35;;;;;;;2.10;1.05;;;14.50;49.80;;;;;;10026385;28;20032;-59
2021/05/25 10:42:29;;;;;;;2.70;0.55;;;14.70;49.70;;;;;;10028481;28;20052;-59
2021/05/25 10:47:28;;;;;;;2.45;1.08;;;14.90;49.00;;;;;;10027303;28;21315;-54
2021/05/25 10:52:19;;;;;;;3.95;0.98;;;15.10;48.20;;;;;;10028083;28;20320;-58
2021/05/25 10:57:33;;;;;;;2.60;0.80;;;15.30;47.60;;;;;;10027056;28;20031;-58
2021/05/25 11:02:43;;;;;;;1.67;0.73;;;14.90;47.30;;;;;;10027582;28;20800;-55
2021/05/25 11:07:40;;;;;;;1.27;0.70;;;14.50;49.20;;;;;;10026478;28;20041;-59
2021/05/25 11:12:31;;;;;;;1.85;0.60;;;14.30;50.10;;;;;;10029152;28;20044;-59
2021/05/25 11:17:29;;;;;;;2.45;0.95;;;14.50;50.70;;;;;;10026813;28;20870;-59
2021/05/25 11:22:36;;;;;;;2.08;0.90;;;14.80;50.30;;;;;;10026800;28;20082;-59
2021/05/25 11:27:44;;;;;;;2.47;0.80;;;14.90;50.60;;;;;;10026638;28;20257;-58
2021/05/25 11:32:41;;;;;;;1.88;0.75;;;15.20;49.60;;;;;;10024482;28;20637;-58
2021/05/25 11:37:34;;;;;;;1.50;0.68;;;15.70;48.80;;;;;;10025079;28;20091;-58
2021/05/25 11:42:31;;;;;;;0.98;0.70;;;15.70;48.20;;;;;;10024036;28;20037;-58
2021/05/25 11:47:23;;;;;;;1.45;0.38;;;15.90;47.40;;;;;;10024347;28;21116;-59
2021/05/25 11:52:18;;;;;;;3.05;0.90;;;16.50;46.90;;;;;;10024209;28;20044;-59
2021/05/25 11:57:33;;;;;;;1.90;0.70;;;16.00;46.90;;;;;;10024316;28;20044;-57
2021/05/25 12:02:28;;;;;;;2.05;0.77;;;15.90;46.60;;;;;;10023731;28;20399;-60
2021/05/25 12:07:20;;;;;;;2.28;0.85;;;15.40;47.20;;;;;;10024158;28;20044;-57
2021/05/25 12:12:11;;;;;;;2.00;0.60;;;15.10;47.50;;;;;;10023701;28;20474;-57
2021/05/25 12:17:05;;;;;;;1.75;0.82;;;15.10;47.40;;;;;;10024655;28;20220;-58
2021/05/25 12:22:04;;;;;;;0.52;0.40;;;15.10;47.60;;;;;;10023100;28;20086;-58
2021/05/25 12:26:56;;;;;;;1.25;0.50;;;15.40;47.30;;;;;;10024894;28;20344;-57
2021/05/25 12:31:48;;;;;;;1.83;0.90;;;15.30;47.50;;;;;;10029845;28;20053;-59
2021/05/25 12:36:52;;;;;;;1.23;0.60;;;15.40;47.70;;;;;;10031727;28;20526;-60
2021/05/25 12:41:51;;;;;;;1.23;0.80;;;15.30;47.60;;;;;;10030223;28;20090;-59
2021/05/25 12:47:04;;;;;;;1.15;0.80;;;15.20;48.30;;;;;;10031431;28;20037;-59
2021/05/25 12:52:20;;;;;;;2.60;0.50;;;16.40;48.30;;;;;;10032412;28;20268;-59
2021/05/25 12:57:11;;;;;;;2.33;0.80;;;16.90;48.00;;;;;;10030640;28;20727;-58
2021/05/25 13:02:02;;;;;;;2.08;0.90;;;18.60;48.30;;;;;;10032357;28;20072;-57
2021/05/25 13:06:56;;;;;;;1.50;0.43;;;18.90;47.30;;;;;;10027188;28;20033;-59
2021/05/25 13:12:04;;;;;;;1.80;0.60;;;17.70;48.60;;;;;;10031631;28;20037;-57
2021/05/25 13:17:15;;;;;;;4.00;0.70;;;17.20;48.10;;;;;;10028545;28;20338;-58
2021/05/25 13:22:10;;;;;;;1.52;0.90;;;17.30;46.80;;;;;;10031017;28;20454;-58
2021/05/25 13:27:00;;;;;;;3.88;0.90;;;17.20;47.20;;;;;;10028684;28;20494;-58
2021/05/25 13:31:52;;;;;;;1.17;0.77;;;16.90;46.80;;;;;;10029727;28;20056;-59
2021/05/25 13:36:44;;;;;;;3.50;0.73;;;17.00;46.00;;;;;;10029489;28;20032;-56
2021/05/25 13:41:37;;;;;;;1.42;0.98;;;16.90;46.60;;;;;;10028268;28;20064;-60
2021/05/25 13:46:27;;;;;;;2.45;0.82;;;17.10;45.20;;;;;;10028291;28;20035;-56
2021/05/25 13:51:18;;;;;;;1.52;0.68;;;16.70;45.40;;;;;;10029107;28;20044;-59
2021/05/25 13:56:22;;;;;;;2.25;0.70;;;16.50;45.40;;;;;;10028771;28;20033;-58
2021/05/25 14:06:09;;;;;;;1.55;1.05;;;17.50;44.60;;;;;;10027854;28;20546;-58
2021/05/25 14:11:01;;;;;;;2.45;0.70;;;18.70;42.30;;;;;;10025077;28;20052;-56
2021/05/25 14:15:52;;;;;;;1.23;0.77;;;17.80;43.80;;;;;;10027516;28;20694;-56
2021/05/25 14:20:42;;;;;;;5.72;0.80;;;18.00;44.30;;;;;;10026618;28;20418;-57
2021/05/25 14:25:33;;;;;;;4.28;0.73;;;18.40;43.20;;;;;;10026606;28;20623;-56
2021/05/25 14:30:24;;;;;;;1.50;0.70;;;18.70;42.10;;;;;;10026018;28;20055;-62
2021/05/25 14:35:15;;;;;;;1.98;0.70;;;18.80;41.80;;;;;;10025447;28;20090;-57
2021/05/25 14:40:08;;;;;;;2.22;1.23;;;21.00;39.10;;;;;;10022012;28;20573;-59
2021/05/25 14:44:59;;;;;;;1.48;0.77;;;20.10;39.70;;;;;;10025765;28;20090;-57
2021/05/25 14:49:49;;;;;;;2.17;0.70;;;19.00;40.60;;;;;;10023302;28;20052;-57
2021/05/25 14:54:42;;;;;;;1.42;0.65;;;20.20;39.00;;;;;;10025118;28;20195;-57
2021/05/25 14:59:35;;;;;;;1.60;0.73;;;21.30;36.50;;;;;;10023766;28;20144;-57
2021/05/25 15:05:12;;;;;;;2.38;0.80;;;21.90;34.20;;;;;;10023590;28;20049;-57
2021/05/25 15:09:44;;;;;;;2.20;0.70;;;20.90;35.10;;;;;;10021942;28;20092;-60
2021/05/25 15:14:35;;;;;;;4.50;1.08;;;21.00;33.70;;;;;;10025962;28;20067;-58
2021/05/25 15:19:27;;;;;;;2.70;0.60;;;23.20;31.20;;;;;;10023666;28;20036;-60
2021/05/25 15:24:18;;;;;;;2.40;0.65;;;22.90;30.90;;;;;;10026413;28;20102;-55
2021/05/25 15:29:08;;;;;;;1.27;0.93;;;21.30;31.70;;;;;;10024315;28;20691;-57
2021/05/25 15:33:59;;;;;;;1.50;1.10;;;19.90;33.50;;;;;;10025251;28;20532;-58
2021/05/25 15:38:50;;;;;;;2.55;0.82;;;21.30;31.30;;;;;;10025227;28;20021;-60
2021/05/25 15:43:41;;;;;;;2.47;0.82;;;21.40;30.70;;;;;;10024815;28;20813;-59
2021/05/25 15:48:32;;;;;;;3.58;1.42;;;20.50;31.70;;;;;;10022794;28;20145;-58
2021/05/25 15:53:34;;;;;;;4.22;1.08;;;19.50;32.20;;;;;;10025547;28;20052;-58
2021/05/25 15:58:25;;;;;;;1.85;0.85;;;22.40;29.80;;;;;;10023769;28;20145;-58
2021/05/25 16:03:16;;;;;;;3.25;0.60;;;23.60;28.40;;;;;;10028409;28;20063;-60
2021/05/25 16:08:10;;;;;;;2.50;0.80;;;21.20;30.00;;;;;;10032101;28;20052;-58
2021/05/25 16:13:01;;;;;;;2.83;1.70;;;20.20;30.50;;;;;;10033460;28;20403;-56
2021/05/25 16:17:52;;;;;;;3.03;0.70;;;20.20;31.00;;;;;;10031993;28;20037;-57
2021/05/25 16:22:48;;;;;;;2.40;0.70;;;20.60;29.90;;;;;;10026009;28;20033;-58
2021/05/25 16:27:40;;;;;;;0.73;0.68;;;21.50;29.00;;;;;;10028087;28;20037;-58
2021/05/25 16:32:30;;;;;;;1.17;0.68;;;23.90;27.10;;;;;;10020913;28;20037;-57
2021/05/25 16:37:21;;;;;;;2.17;0.90;;;26.40;25.90;;;;;;10030479;28;20056;-53
2021/05/25 16:42:13;;;;;;;0.60;0.40;;;23.80;26.60;;;;;;10031633;28;20044;-56
2021/05/25 16:47:04;;;;;;;1.10;0.70;;;23.80;26.70;;;;;;10030139;28;21378;-58
2021/05/25 16:51:55;;;;;;;1.20;0.50;;;22.10;27.80;;;;;;10031960;28;20230;-54
2021/05/25 16:56:46;;;;;;;1.75;0.75;;;20.30;29.40;;;;;;10031410;28;20033;-56
2021/05/25 17:01:44;;;;;;;1.33;0.68;;;20.10;29.40;;;;;;10032549;28;20025;-57
2021/05/25 17:06:41;;;;;;;2.33;1.10;;;22.00;27.70;;;;;;10029686;28;20298;-56
2021/05/25 17:11:51;;;;;;;2.35;0.75;;;23.70;26.70;;;;;;10030389;28;20060;-56
2021/05/25 17:21:52;;;;;;;1.83;0.88;;;21.40;27.90;;;;;;10031102;28;20131;-55
2021/05/25 17:26:50;;;;;;;2.15;1.25;;;19.00;30.00;;;;;;10030714;28;20047;-57
2021/05/25 17:31:42;;;;;;;2.53;0.70;;;18.40;30.80;;;;;;10029909;28;20029;-59
2021/05/25 17:36:33;;;;;;;2.47;1.30;;;18.10;31.20;;;;;;10029370;28;20112;-56
2021/05/25 17:41:23;;;;;;;1.48;0.88;;;17.90;31.60;;;;;;10027923;28;20116;-57
2021/05/25 17:46:14;;;;;;;1.00;0.60;;;17.80;31.90;;;;;;10029612;28;20043;-59
2021/05/25 17:51:05;;;;;;;1.33;0.60;;;17.70;32.20;;;;;;10028310;28;20052;-59
2021/05/25 17:55:56;;;;;;;0.88;0.60;;;17.60;32.50;;;;;;10026896;28;20503;-68
2021/05/25 18:00:47;;;;;;;2.97;0.70;;;17.50;32.70;;;;;;10025896;28;20032;-54
2021/05/25 18:05:38;;;;;;;1.30;0.80;;;17.50;32.80;;;;;;10025338;28;20285;-59
2021/05/25 18:10:29;;;;;;;6.80;1.33;;;17.40;33.30;;;;;;10028359;28;20119;-59
2021/05/25 18:15:20;;;;;;;1.48;0.68;;;17.50;33.60;;;;;;10030157;28;20029;-60
2021/05/25 18:20:14;;;;;;;1.48;0.82;;;17.50;33.80;;;;;;10021222;28;20334;-60
2021/05/25 18:25:05;;;;;;;1.80;0.95;;;17.50;34.10;;;;;;10040789;28;20025;-59
2021/05/25 18:29:56;;;;;;;2.60;1.17;;;17.30;34.70;;;;;;10039768;28;20053;-60
2021/05/25 18:35:16;;;;;;;1.33;1.10;;;17.20;35.30;;;;;;10041078;28;20457;-60
2021/05/25 18:45:12;;;;;;;2.08;0.70;;;17.20;36.00;;;;;;10014783;28;20045;-58
2021/05/25 18:50:08;;;;;;;1.98;0.77;;;17.00;36.20;;;;;;10037444;28;20489;-58
2021/05/25 18:55:00;;;;;;;1.10;0.50;;;16.90;36.60;;;;;;10041360;28;20477;-58
2021/05/25 18:59:51;;;;;;;2.47;0.65;;;16.80;37.10;;;;;;10039254;28;20446;-57
2021/05/25 19:04:42;;;;;;;2.42;0.90;;;16.70;37.40;;;;;;10039412;28;20149;-58
2021/05/25 19:09:32;;;;;;;1.42;1.33;;;16.70;37.40;;;;;;10039246;28;20331;-57
2021/05/25 19:14:23;;;;;;;1.77;0.77;;;16.70;37.50;;;;;;10040279;28;20025;-60
2021/05/25 19:19:19;;;;;;;2.90;1.88;;;16.60;37.70;;;;;;10038849;28;20052;-58
2021/05/25 19:24:21;;;;;;;1.85;1.60;;;16.50;38.00;;;;;;10040073;28;20090;-59
2021/05/25 19:29:11;;;;;;;2.10;0.98;;;16.60;38.00;;;;;;10040026;28;20041;-62
2021/05/25 19:34:04;;;;;;;2.90;1.10;;;16.60;38.30;;;;;;10038299;28;20029;-62
2021/05/25 19:38:56;;;;;;;2.90;1.35;;;16.50;38.60;;;;;;10038686;28;20037;-60
2021/05/25 19:43:47;;;;;;;4.07;1.10;;;16.40;39.10;;;;;;10037853;28;20119;-62
2021/05/25 19:48:39;;;;;;;1.42;0.73;;;16.30;39.40;;;;;;10039540;28;20134;-59
2021/05/25 19:53:30;;;;;;;2.03;1.00;;;16.20;39.40;;;;;;10039768;28;21229;-59
2021/05/25 19:58:21;;;;;;;1.83;0.70;;;16.10;39.80;;;;;;10039123;28;20495;-60
2021/05/25 20:03:12;;;;;;;2.15;1.20;;;16.10;40.00;;;;;;10039020;28;20122;-60
2021/05/25 20:08:03;;;;;;;2.17;1.10;;;16.10;39.90;;;;;;10038383;28;20165;-57
2021/05/25 20:12:54;;;;;;;2.80;0.80;;;16.10;40.00;;;;;;10038009;28;20123;-62
2021/05/25 20:17:46;;;;;;;2.53;1.08;;;16.10;40.10;;;;;;10038835;28;21846;-60
2021/05/25 20:22:37;;;;;;;1.02;0.65;;;16.10;40.20;;;;;;10038396;28;20115;-63
2021/05/25 20:27:28;;;;;;;3.08;0.60;;;16.10;40.20;;;;;;10034789;28;20041;-59
2021/05/25 20:32:19;;;;;;;1.10;0.70;;;16.10;40.20;;;;;;10035444;28;20144;-59
2021/05/25 20:42:19;;;;;;;1.15;0.60;;;16.10;40.30;;;;;;10037784;28;20696;-59
2021/05/25 20:47:10;;;;;;;2.33;0.73;;;16.10;40.30;;;;;;10034798;28;20450;-60
2021/05/25 20:52:01;;;;;;;0.75;0.60;;;16.10;40.50;;;;;;10043313;28;20694;-60
2021/05/25 20:56:51;;;;;;;3.53;1.02;;;16.00;40.50;;;;;;10043800;28;20461;-61
2021/05/25 21:01:43;;;;;;;1.15;0.65;;;15.90;40.70;;;;;;10042780;28;20478;-61
2021/05/25 21:06:34;;;;;;;1.52;0.50;;;15.90;40.80;;;;;;10041133;28;20361;-60
2021/05/25 21:11:24;;;;;;;1.65;0.75;;;15.90;40.90;;;;;;10042008;28;20036;-59
2021/05/25 21:16:15;;;;;;;1.35;0.70;;;15.80;41.10;;;;;;10044081;28;20037;-59
2021/05/25 21:21:06;;;;;;;1.67;0.70;;;15.80;41.10;;;;;;10043755;28;20037;-60
2021/05/25 21:25:57;;;;;;;2.15;1.00;;;15.80;41.20;;;;;;10044209;28;20037;-58
2021/05/25 21:30:47;;;;;;;1.83;1.02;;;15.80;41.20;;;;;;10042823;28;20471;-59
2021/05/25 21:35:38;;;;;;;3.03;0.80;;;15.90;41.20;;;;;;10043466;28;20545;-59
2021/05/25 21:40:29;;;;;;;2.38;0.93;;;15.80;41.40;;;;;;10042297;28;20585;-59
2021/05/25 21:45:19;;;;;;;2.83;0.93;;;15.70;41.70;;;;;;10042542;28;20033;-58
2021/05/25 21:50:16;;;;;;;3.05;0.90;;;15.60;42.10;;;;;;10042433;28;20037;-59
2021/05/25 21:55:07;;;;;;;1.27;0.80;;;15.60;42.50;;;;;;10042412;28;20036;-59
2021/05/25 21:59:58;;;;;;;1.13;0.65;;;15.50;42.80;;;;;;10039040;28;20060;-58
2021/05/25 22:04:48;;;;;;;0.88;0.60;;;15.40;43.10;;;;;;10040693;28;21809;-59
2021/05/25 22:09:39;;;;;;;1.23;0.60;;;15.40;43.50;;;;;;10042252;28;20040;-58
2021/05/25 22:14:30;;;;;;;1.02;0.60;;;15.30;44.00;;;;;;10040618;28;20743;-59
2021/05/25 22:19:22;;;;;;;1.23;0.68;;;15.30;44.30;;;;;;10042299;28;20437;-60
2021/05/25 22:24:13;;;;;;;1.17;0.47;;;15.30;44.60;;;;;;10040768;28;20025;-59
2021/05/25 22:29:04;;;;;;;1.48;0.40;;;15.30;45.00;;;;;;10040958;28;20045;-60
2021/05/25 22:33:55;;;;;;;0.60;0.60;;;15.20;45.30;;;;;;10040528;28;20446;-59
2021/05/25 22:38:45;;;;;;;1.05;0.50;;;15.10;46.10;;;;;;10040773;28;20032;-60
2021/05/25 22:43:36;;;;;;;1.23;0.50;;;15.00;46.60;;;;;;10040407;28;20035;-60
2021/05/25 22:48:27;;;;;;;2.58;0.90;;;15.10;46.80;;;;;;10037045;28;20837;-58
2021/05/25 22:53:18;;;;;;;1.02;0.57;;;15.00;47.00;;;;;;10040737;28;20182;-59
2021/05/25 22:58:09;;;;;;;1.30;0.75;;;15.00;47.40;;;;;;10037057;28;20037;-59
2021/05/25 23:03:00;;;;;;;0.57;0.50;;;15.10;47.60;;;;;;10040569;28;20049;-59
2021/05/25 23:07:50;;;;;;;2.13;0.90;;;15.10;48.00;;;;;;10038630;28;20041;-58
2021/05/25 23:12:42;;;;;;;1.30;1.00;;;15.00;48.20;;;;;;10040061;28;20029;-58
2021/05/25 23:17:35;;;;;;;4.22;1.02;;;14.90;48.90;;;;;;10037816;28;20454;-59
2021/05/25 23:22:26;;;;;;;1.23;0.70;;;14.90;49.20;;;;;;10039351;28;20037;-59
2021/05/25 23:27:19;;;;;;;2.35;0.63;;;14.90;49.00;;;;;;10038228;28;20349;-58
2021/05/25 23:32:10;;;;;;;2.50;0.60;;;14.80;49.40;;;;;;10039111;28;20408;-59
2021/05/25 23:37:01;;;;;;;1.80;1.17;;;14.80;49.60;;;;;;10039384;28;20032;-58
2021/05/25 23:41:52;;;;;;;3.53;0.65;;;14.70;50.00;;;;;;10038010;28;20101;-59
2021/05/25 23:46:42;;;;;;;1.42;0.70;;;14.70;50.20;;;;;;10034426;28;20033;-59
2021/05/25 23:51:34;;;;;;;2.70;1.33;;;14.60;50.70;;;;;;10037095;28;20048;-59
2021/05/25 23:56:24;;;;;;;2.45;0.60;;;14.60;50.70;;;;;;10038659;28;20032;-59
